Terminal Aerodrome Forecast
Issued by NWS

Home | Current Version | Previous Version | Graphics & Text | Print | Product List | Glossary On
Versions: 1 2 3 4 5 6 7 8 9 10 11 12 13 14
000
FTUS43 KGRB 161129
TAFRHI
TAF
KRHI 161129Z 1612/1712 24004KT 4SM BR SCT250
      TEMPO 1612/1615 3SM BR
     FM161500 VRB03KT P6SM BKN250
     FM170200 VRB03KT 5SM -SN SCT030 OVC060
     FM170400 VRB03KT 3SM -SNPL SCT020 OVC035
     FM170800 06003KT 2SM -SNPL OVC012=

USA.gov is the U.S. government's official web portal to all federal, state and local government web resources and services.